sensor_id;sensor_type;location;lat;lon;timestamp;P1;durP1;ratioP1;P2;durP2;ratioP2
24859;SDS011;12936;52.006;4.350;2023-06-04T00:01:27;1.90;;;1.30;;
24859;SDS011;12936;52.006;4.350;2023-06-04T00:03:55;5.35;;;1.70;;
24859;SDS011;12936;52.006;4.350;2023-06-04T00:06:25;3.67;;;1.63;;
24859;SDS011;12936;52.006;4.350;2023-06-04T00:08:54;3.00;;;1.40;;
24859;SDS011;12936;52.006;4.350;2023-06-04T00:11:22;4.60;;;1.70;;
24859;SDS011;12936;52.006;4.350;2023-06-04T00:13:53;2.40;;;1.27;;
24859;SDS011;12936;52.006;4.350;2023-06-04T00:16:21;1.45;;;1.30;;
24859;SDS011;12936;52.006;4.350;2023-06-04T00:18:49;2.00;;;1.50;;
24859;SDS011;12936;52.006;4.350;2023-06-04T00:21:17;4.47;;;1.75;;
24859;SDS011;12936;52.006;4.350;2023-06-04T00:23:48;3.33;;;1.50;;
24859;SDS011;12936;52.006;4.350;2023-06-04T00:26:18;6.40;;;1.50;;
24859;SDS011;12936;52.006;4.350;2023-06-04T00:28:49;3.42;;;1.58;;
24859;SDS011;12936;52.006;4.350;2023-06-04T00:31:17;2.55;;;1.35;;
24859;SDS011;12936;52.006;4.350;2023-06-04T00:33:51;5.50;;;1.50;;
24859;SDS011;12936;52.006;4.350;2023-06-04T00:36:19;2.85;;;1.05;;
24859;SDS011;12936;52.006;4.350;2023-06-04T00:38:48;5.90;;;1.40;;
24859;SDS011;12936;52.006;4.350;2023-06-04T00:41:17;2.20;;;1.25;;
24859;SDS011;12936;52.006;4.350;2023-06-04T00:43:45;3.22;;;1.40;;
24859;SDS011;12936;52.006;4.350;2023-06-04T00:46:22;3.65;;;1.60;;
24859;SDS011;12936;52.006;4.350;2023-06-04T00:48:53;6.30;;;1.40;;
24859;SDS011;12936;52.006;4.350;2023-06-04T00:51:22;3.00;;;1.23;;
24859;SDS011;12936;52.006;4.350;2023-06-04T00:53:52;1.95;;;1.30;;
24859;SDS011;12936;52.006;4.350;2023-06-04T00:56:23;4.07;;;1.40;;
24859;SDS011;12936;52.006;4.350;2023-06-04T00:58:52;4.60;;;1.50;;
24859;SDS011;12936;52.006;4.350;2023-06-04T01:01:29;5.15;;;1.40;;
24859;SDS011;12936;52.006;4.350;2023-06-04T01:04:07;4.70;;;1.58;;
24859;SDS011;12936;52.006;4.350;2023-06-04T01:06:42;4.97;;;1.60;;
24859;SDS011;12936;52.006;4.350;2023-06-04T01:09:12;3.50;;;1.40;;
24859;SDS011;12936;52.006;4.350;2023-06-04T01:11:42;1.83;;;1.40;;
24859;SDS011;12936;52.006;4.350;2023-06-04T01:14:10;2.70;;;1.20;;
24859;SDS011;12936;52.006;4.350;2023-06-04T01:16:39;3.75;;;1.58;;
24859;SDS011;12936;52.006;4.350;2023-06-04T01:19:22;2.25;;;1.40;;
24859;SDS011;12936;52.006;4.350;2023-06-04T01:22:17;3.42;;;1.50;;
24859;SDS011;12936;52.006;4.350;2023-06-04T01:25:00;6.15;;;1.33;;
24859;SDS011;12936;52.006;4.350;2023-06-04T01:27:30;5.43;;;1.50;;
24859;SDS011;12936;52.006;4.350;2023-06-04T01:30:01;5.45;;;1.30;;
24859;SDS011;12936;52.006;4.350;2023-06-04T01:32:30;5.47;;;1.77;;
24859;SDS011;12936;52.006;4.350;2023-06-04T01:34:58;2.72;;;1.30;;
24859;SDS011;12936;52.006;4.350;2023-06-04T01:37:27;4.32;;;1.30;;
24859;SDS011;12936;52.006;4.350;2023-06-04T01:39:55;3.67;;;1.52;;
24859;SDS011;12936;52.006;4.350;2023-06-04T01:42:25;7.00;;;1.48;;
24859;SDS011;12936;52.006;4.350;2023-06-04T01:44:53;2.20;;;1.23;;
24859;SDS011;12936;52.006;4.350;2023-06-04T01:47:22;2.33;;;1.40;;
24859;SDS011;12936;52.006;4.350;2023-06-04T01:49:50;1.48;;;1.30;;
24859;SDS011;12936;52.006;4.350;2023-06-04T01:52:18;2.03;;;1.05;;
24859;SDS011;12936;52.006;4.350;2023-06-04T01:54:47;2.58;;;1.30;;
24859;SDS011;12936;52.006;4.350;2023-06-04T01:57:19;1.60;;;1.23;;
24859;SDS011;12936;52.006;4.350;2023-06-04T01:59:51;4.38;;;1.58;;
24859;SDS011;12936;52.006;4.350;2023-06-04T02:02:19;2.70;;;1.52;;
24859;SDS011;12936;52.006;4.350;2023-06-04T02:04:48;4.28;;;1.30;;
24859;SDS011;12936;52.006;4.350;2023-06-04T02:07:19;3.15;;;1.27;;
24859;SDS011;12936;52.006;4.350;2023-06-04T02:09:49;1.90;;;1.40;;
24859;SDS011;12936;52.006;4.350;2023-06-04T02:12:18;5.93;;;1.77;;
24859;SDS011;12936;52.006;4.350;2023-06-04T02:14:46;4.78;;;1.52;;
24859;SDS011;12936;52.006;4.350;2023-06-04T02:17:17;1.75;;;1.20;;
24859;SDS011;12936;52.006;4.350;2023-06-04T02:19:45;1.85;;;1.10;;
24859;SDS011;12936;52.006;4.350;2023-06-04T02:22:16;2.08;;;1.33;;
24859;SDS011;12936;52.006;4.350;2023-06-04T02:24:45;1.95;;;1.27;;
24859;SDS011;12936;52.006;4.350;2023-06-04T02:27:14;2.28;;;1.25;;
24859;SDS011;12936;52.006;4.350;2023-06-04T02:29:42;1.48;;;1.17;;
24859;SDS011;12936;52.006;4.350;2023-06-04T02:32:11;3.20;;;1.13;;
24859;SDS011;12936;52.006;4.350;2023-06-04T02:34:41;2.10;;;1.23;;
24859;SDS011;12936;52.006;4.350;2023-06-04T02:37:13;2.42;;;1.00;;
24859;SDS011;12936;52.006;4.350;2023-06-04T02:39:42;2.97;;;1.15;;
24859;SDS011;12936;52.006;4.350;2023-06-04T02:42:11;2.88;;;1.52;;
24859;SDS011;12936;52.006;4.350;2023-06-04T02:44:59;1.65;;;1.25;;
24859;SDS011;12936;52.006;4.350;2023-06-04T02:47:27;2.17;;;1.33;;
24859;SDS011;12936;52.006;4.350;2023-06-04T02:49:57;3.13;;;1.20;;
24859;SDS011;12936;52.006;4.350;2023-06-04T02:52:25;3.63;;;1.75;;
24859;SDS011;12936;52.006;4.350;2023-06-04T02:54:53;3.20;;;1.27;;
24859;SDS011;12936;52.006;4.350;2023-06-04T02:57:23;1.67;;;1.30;;
24859;SDS011;12936;52.006;4.350;2023-06-04T02:59:51;2.35;;;1.05;;
24859;SDS011;12936;52.006;4.350;2023-06-04T03:02:21;2.88;;;1.25;;
24859;SDS011;12936;52.006;4.350;2023-06-04T03:04:50;1.40;;;1.02;;
24859;SDS011;12936;52.006;4.350;2023-06-04T03:07:20;3.50;;;1.10;;
24859;SDS011;12936;52.006;4.350;2023-06-04T03:09:49;1.40;;;0.88;;
24859;SDS011;12936;52.006;4.350;2023-06-04T03:12:17;3.50;;;1.13;;
24859;SDS011;12936;52.006;4.350;2023-06-04T03:14:45;3.47;;;1.10;;
24859;SDS011;12936;52.006;4.350;2023-06-04T03:17:16;2.92;;;1.00;;
24859;SDS011;12936;52.006;4.350;2023-06-04T03:19:44;1.90;;;1.30;;
24859;SDS011;12936;52.006;4.350;2023-06-04T03:22:14;1.33;;;0.90;;
24859;SDS011;12936;52.006;4.350;2023-06-04T03:24:44;4.45;;;1.38;;
24859;SDS011;12936;52.006;4.350;2023-06-04T03:27:12;2.80;;;1.40;;
24859;SDS011;12936;52.006;4.350;2023-06-04T03:29:40;2.97;;;1.10;;
24859;SDS011;12936;52.006;4.350;2023-06-04T03:32:08;1.33;;;0.90;;
24859;SDS011;12936;52.006;4.350;2023-06-04T03:34:57;3.17;;;1.15;;
24859;SDS011;12936;52.006;4.350;2023-06-04T03:37:26;2.28;;;1.23;;
24859;SDS011;12936;52.006;4.350;2023-06-04T03:39:55;2.28;;;1.05;;
24859;SDS011;12936;52.006;4.350;2023-06-04T03:42:23;3.13;;;1.27;;
24859;SDS011;12936;52.006;4.350;2023-06-04T03:44:51;1.85;;;0.90;;
24859;SDS011;12936;52.006;4.350;2023-06-04T03:47:20;1.47;;;0.97;;
24859;SDS011;12936;52.006;4.350;2023-06-04T03:49:48;2.30;;;0.82;;
24859;SDS011;12936;52.006;4.350;2023-06-04T03:52:16;3.35;;;1.15;;
24859;SDS011;12936;52.006;4.350;2023-06-04T03:54:46;2.08;;;1.17;;
24859;SDS011;12936;52.006;4.350;2023-06-04T03:57:16;2.35;;;1.38;;
24859;SDS011;12936;52.006;4.350;2023-06-04T03:59:45;2.30;;;0.98;;
24859;SDS011;12936;52.006;4.350;2023-06-04T04:02:35;3.17;;;1.00;;
24859;SDS011;12936;52.006;4.350;2023-06-04T04:05:04;3.15;;;1.00;;
24859;SDS011;12936;52.006;4.350;2023-06-04T04:07:34;1.38;;;1.00;;
24859;SDS011;12936;52.006;4.350;2023-06-04T04:10:02;2.78;;;1.00;;
24859;SDS011;12936;52.006;4.350;2023-06-04T04:12:53;4.40;;;1.35;;
24859;SDS011;12936;52.006;4.350;2023-06-04T04:15:24;1.63;;;1.05;;
24859;SDS011;12936;52.006;4.350;2023-06-04T04:17:53;2.22;;;0.98;;
24859;SDS011;12936;52.006;4.350;2023-06-04T04:20:24;1.65;;;1.35;;
24859;SDS011;12936;52.006;4.350;2023-06-04T04:22:53;4.53;;;1.48;;
24859;SDS011;12936;52.006;4.350;2023-06-04T04:25:22;3.22;;;1.10;;
24859;SDS011;12936;52.006;4.350;2023-06-04T04:27:55;5.45;;;1.27;;
24859;SDS011;12936;52.006;4.350;2023-06-04T04:30:26;1.40;;;1.00;;
24859;SDS011;12936;52.006;4.350;2023-06-04T04:32:55;2.95;;;1.15;;
24859;SDS011;12936;52.006;4.350;2023-06-04T04:35:23;3.93;;;1.03;;
24859;SDS011;12936;52.006;4.350;2023-06-04T04:37:52;1.75;;;0.90;;
24859;SDS011;12936;52.006;4.350;2023-06-04T04:40:20;3.67;;;1.00;;
24859;SDS011;12936;52.006;4.350;2023-06-04T04:42:48;2.63;;;0.98;;
24859;SDS011;12936;52.006;4.350;2023-06-04T04:45:18;2.35;;;0.90;;
24859;SDS011;12936;52.006;4.350;2023-06-04T04:47:46;2.00;;;1.10;;
24859;SDS011;12936;52.006;4.350;2023-06-04T04:50:15;5.18;;;1.27;;
24859;SDS011;12936;52.006;4.350;2023-06-04T04:52:43;3.28;;;1.27;;
24859;SDS011;12936;52.006;4.350;2023-06-04T04:55:11;1.50;;;0.80;;
24859;SDS011;12936;52.006;4.350;2023-06-04T04:57:39;3.90;;;0.90;;
24859;SDS011;12936;52.006;4.350;2023-06-04T05:00:08;1.88;;;1.23;;
24859;SDS011;12936;52.006;4.350;2023-06-04T05:02:38;2.47;;;1.20;;
24859;SDS011;12936;52.006;4.350;2023-06-04T05:05:07;3.08;;;1.48;;
24859;SDS011;12936;52.006;4.350;2023-06-04T05:07:37;1.92;;;1.17;;
24859;SDS011;12936;52.006;4.350;2023-06-04T05:10:05;2.33;;;1.02;;
24859;SDS011;12936;52.006;4.350;2023-06-04T05:12:34;3.00;;;1.17;;
24859;SDS011;12936;52.006;4.350;2023-06-04T05:15:04;1.58;;;1.05;;
24859;SDS011;12936;52.006;4.350;2023-06-04T05:17:32;3.90;;;1.25;;
24859;SDS011;12936;52.006;4.350;2023-06-04T05:20:03;2.38;;;1.20;;
24859;SDS011;12936;52.006;4.350;2023-06-04T05:22:32;3.25;;;1.20;;
24859;SDS011;12936;52.006;4.350;2023-06-04T05:25:02;1.87;;;1.20;;
24859;SDS011;12936;52.006;4.350;2023-06-04T05:27:35;3.08;;;1.33;;
24859;SDS011;12936;52.006;4.350;2023-06-04T05:30:06;5.10;;;1.17;;
24859;SDS011;12936;52.006;4.350;2023-06-04T05:32:38;2.63;;;0.95;;
24859;SDS011;12936;52.006;4.350;2023-06-04T05:35:12;4.80;;;1.20;;
24859;SDS011;12936;52.006;4.350;2023-06-04T05:37:43;2.43;;;1.17;;
24859;SDS011;12936;52.006;4.350;2023-06-04T05:40:12;2.45;;;1.10;;
24859;SDS011;12936;52.006;4.350;2023-06-04T05:42:41;2.07;;;1.30;;
24859;SDS011;12936;52.006;4.350;2023-06-04T05:45:09;3.90;;;1.38;;
24859;SDS011;12936;52.006;4.350;2023-06-04T05:47:37;2.28;;;1.15;;
24859;SDS011;12936;52.006;4.350;2023-06-04T05:50:05;3.45;;;1.30;;
24859;SDS011;12936;52.006;4.350;2023-06-04T05:52:36;3.30;;;1.20;;
24859;SDS011;12936;52.006;4.350;2023-06-04T05:55:04;2.75;;;1.30;;
24859;SDS011;12936;52.006;4.350;2023-06-04T05:57:34;2.35;;;1.23;;
24859;SDS011;12936;52.006;4.350;2023-06-04T06:00:02;2.13;;;1.30;;
24859;SDS011;12936;52.006;4.350;2023-06-04T06:02:35;5.68;;;1.60;;
24859;SDS011;12936;52.006;4.350;2023-06-04T06:05:05;3.95;;;1.33;;
24859;SDS011;12936;52.006;4.350;2023-06-04T06:07:36;1.35;;;0.90;;
24859;SDS011;12936;52.006;4.350;2023-06-04T06:10:06;3.35;;;1.30;;
24859;SDS011;12936;52.006;4.350;2023-06-04T06:12:36;3.50;;;1.35;;
24859;SDS011;12936;52.006;4.350;2023-06-04T06:15:06;2.45;;;1.05;;
24859;SDS011;12936;52.006;4.350;2023-06-04T06:17:37;3.75;;;1.40;;
24859;SDS011;12936;52.006;4.350;2023-06-04T06:20:11;2.35;;;1.40;;
24859;SDS011;12936;52.006;4.350;2023-06-04T06:22:45;3.38;;;1.10;;
24859;SDS011;12936;52.006;4.350;2023-06-04T06:25:13;2.80;;;1.00;;
24859;SDS011;12936;52.006;4.350;2023-06-04T06:27:42;2.13;;;1.20;;
24859;SDS011;12936;52.006;4.350;2023-06-04T06:30:10;3.88;;;1.50;;
24859;SDS011;12936;52.006;4.350;2023-06-04T06:32:39;4.32;;;1.27;;
24859;SDS011;12936;52.006;4.350;2023-06-04T06:35:08;5.80;;;1.20;;
24859;SDS011;12936;52.006;4.350;2023-06-04T06:37:36;1.90;;;1.13;;
24859;SDS011;12936;52.006;4.350;2023-06-04T06:40:09;3.15;;;1.25;;
24859;SDS011;12936;52.006;4.350;2023-06-04T06:42:38;4.63;;;1.23;;
24859;SDS011;12936;52.006;4.350;2023-06-04T06:45:06;3.78;;;1.20;;
24859;SDS011;12936;52.006;4.350;2023-06-04T06:47:35;2.95;;;1.05;;
24859;SDS011;12936;52.006;4.350;2023-06-04T06:50:03;3.85;;;1.05;;
24859;SDS011;12936;52.006;4.350;2023-06-04T06:52:31;2.83;;;1.00;;
24859;SDS011;12936;52.006;4.350;2023-06-04T06:55:00;2.42;;;1.00;;
24859;SDS011;12936;52.006;4.350;2023-06-04T06:57:29;3.53;;;1.10;;
24859;SDS011;12936;52.006;4.350;2023-06-04T06:59:57;3.20;;;1.05;;
24859;SDS011;12936;52.006;4.350;2023-06-04T07:02:26;1.58;;;0.88;;
24859;SDS011;12936;52.006;4.350;2023-06-04T07:04:55;1.73;;;1.02;;
24859;SDS011;12936;52.006;4.350;2023-06-04T07:07:23;3.53;;;1.10;;
24859;SDS011;12936;52.006;4.350;2023-06-04T07:09:51;3.38;;;0.90;;
24859;SDS011;12936;52.006;4.350;2023-06-04T07:12:19;3.55;;;1.20;;
24859;SDS011;12936;52.006;4.350;2023-06-04T07:14:49;2.25;;;0.98;;
24859;SDS011;12936;52.006;4.350;2023-06-04T07:17:17;4.28;;;1.25;;
24859;SDS011;12936;52.006;4.350;2023-06-04T07:19:45;3.90;;;1.08;;
24859;SDS011;12936;52.006;4.350;2023-06-04T07:22:13;3.63;;;1.10;;
24859;SDS011;12936;52.006;4.350;2023-06-04T07:24:41;3.63;;;0.90;;
24859;SDS011;12936;52.006;4.350;2023-06-04T07:27:13;5.60;;;1.15;;
24859;SDS011;12936;52.006;4.350;2023-06-04T07:29:43;5.93;;;1.20;;
24859;SDS011;12936;52.006;4.350;2023-06-04T07:32:13;3.80;;;1.15;;
24859;SDS011;12936;52.006;4.350;2023-06-04T07:34:41;3.92;;;1.15;;
24859;SDS011;12936;52.006;4.350;2023-06-04T07:37:09;2.38;;;1.10;;
24859;SDS011;12936;52.006;4.350;2023-06-04T07:39:38;2.40;;;0.90;;
24859;SDS011;12936;52.006;4.350;2023-06-04T07:42:07;2.72;;;1.00;;
24859;SDS011;12936;52.006;4.350;2023-06-04T07:44:36;6.05;;;1.42;;
24859;SDS011;12936;52.006;4.350;2023-06-04T07:47:04;3.70;;;1.23;;
24859;SDS011;12936;52.006;4.350;2023-06-04T07:49:34;3.47;;;1.17;;
24859;SDS011;12936;52.006;4.350;2023-06-04T07:52:16;3.58;;;1.20;;
24859;SDS011;12936;52.006;4.350;2023-06-04T07:54:52;3.70;;;1.17;;
24859;SDS011;12936;52.006;4.350;2023-06-04T07:57:22;2.47;;;1.08;;
24859;SDS011;12936;52.006;4.350;2023-06-04T07:59:51;1.95;;;1.08;;
24859;SDS011;12936;52.006;4.350;2023-06-04T08:02:19;5.53;;;1.20;;
24859;SDS011;12936;52.006;4.350;2023-06-04T08:04:49;4.45;;;1.20;;
24859;SDS011;12936;52.006;4.350;2023-06-04T08:07:19;2.53;;;1.10;;
24859;SDS011;12936;52.006;4.350;2023-06-04T08:09:49;2.97;;;1.27;;
24859;SDS011;12936;52.006;4.350;2023-06-04T08:12:18;2.45;;;1.20;;
24859;SDS011;12936;52.006;4.350;2023-06-04T08:14:48;3.63;;;1.20;;
24859;SDS011;12936;52.006;4.350;2023-06-04T08:17:19;4.57;;;1.30;;
24859;SDS011;12936;52.006;4.350;2023-06-04T08:19:48;4.22;;;1.02;;
24859;SDS011;12936;52.006;4.350;2023-06-04T08:22:17;7.97;;;1.70;;
24859;SDS011;12936;52.006;4.350;2023-06-04T08:24:45;4.03;;;1.10;;
24859;SDS011;12936;52.006;4.350;2023-06-04T08:27:14;3.13;;;1.20;;
24859;SDS011;12936;52.006;4.350;2023-06-04T08:29:45;2.80;;;1.10;;
24859;SDS011;12936;52.006;4.350;2023-06-04T08:32:14;3.88;;;1.30;;
24859;SDS011;12936;52.006;4.350;2023-06-04T08:34:42;3.88;;;1.10;;
24859;SDS011;12936;52.006;4.350;2023-06-04T08:37:11;2.70;;;1.02;;
24859;SDS011;12936;52.006;4.350;2023-06-04T08:39:39;2.42;;;1.00;;
24859;SDS011;12936;52.006;4.350;2023-06-04T08:42:09;3.63;;;1.10;;
24859;SDS011;12936;52.006;4.350;2023-06-04T08:44:46;5.03;;;1.10;;
24859;SDS011;12936;52.006;4.350;2023-06-04T08:47:19;2.33;;;1.10;;
24859;SDS011;12936;52.006;4.350;2023-06-04T08:49:48;2.63;;;0.90;;
24859;SDS011;12936;52.006;4.350;2023-06-04T08:52:18;2.33;;;1.08;;
24859;SDS011;12936;52.006;4.350;2023-06-04T08:54:48;1.77;;;0.93;;
24859;SDS011;12936;52.006;4.350;2023-06-04T08:57:18;3.97;;;1.05;;
24859;SDS011;12936;52.006;4.350;2023-06-04T08:59:46;4.35;;;1.40;;
24859;SDS011;12936;52.006;4.350;2023-06-04T09:02:15;6.03;;;1.17;;
24859;SDS011;12936;52.006;4.350;2023-06-04T09:04:43;4.95;;;1.20;;
24859;SDS011;12936;52.006;4.350;2023-06-04T09:07:13;4.40;;;1.30;;
24859;SDS011;12936;52.006;4.350;2023-06-04T09:09:46;4.85;;;1.20;;
24859;SDS011;12936;52.006;4.350;2023-06-04T09:12:37;4.40;;;1.13;;
24859;SDS011;12936;52.006;4.350;2023-06-04T09:15:33;3.70;;;1.55;;
24859;SDS011;12936;52.006;4.350;2023-06-04T09:18:28;6.47;;;1.10;;
24859;SDS011;12936;52.006;4.350;2023-06-04T09:21:16;4.75;;;1.40;;
24859;SDS011;12936;52.006;4.350;2023-06-04T09:23:47;6.40;;;1.40;;
24859;SDS011;12936;52.006;4.350;2023-06-04T09:26:17;3.30;;;1.00;;
24859;SDS011;12936;52.006;4.350;2023-06-04T09:28:45;5.60;;;1.40;;
24859;SDS011;12936;52.006;4.350;2023-06-04T09:31:14;3.90;;;1.10;;
24859;SDS011;12936;52.006;4.350;2023-06-04T09:33:44;2.80;;;1.40;;
24859;SDS011;12936;52.006;4.350;2023-06-04T09:36:12;3.75;;;1.13;;
24859;SDS011;12936;52.006;4.350;2023-06-04T09:38:40;4.43;;;1.33;;
24859;SDS011;12936;52.006;4.350;2023-06-04T09:41:11;6.88;;;1.42;;
24859;SDS011;12936;52.006;4.350;2023-06-04T09:43:41;3.92;;;1.30;;
24859;SDS011;12936;52.006;4.350;2023-06-04T09:46:10;3.10;;;1.33;;
24859;SDS011;12936;52.006;4.350;2023-06-04T09:48:39;5.22;;;1.20;;
24859;SDS011;12936;52.006;4.350;2023-06-04T09:51:08;4.07;;;1.20;;
24859;SDS011;12936;52.006;4.350;2023-06-04T09:53:36;3.83;;;1.15;;
24859;SDS011;12936;52.006;4.350;2023-06-04T09:56:05;4.32;;;1.23;;
24859;SDS011;12936;52.006;4.350;2023-06-04T09:58:34;4.70;;;1.10;;
24859;SDS011;12936;52.006;4.350;2023-06-04T10:01:27;5.10;;;1.20;;
24859;SDS011;12936;52.006;4.350;2023-06-04T10:03:57;2.80;;;1.13;;
24859;SDS011;12936;52.006;4.350;2023-06-04T10:06:29;7.65;;;1.55;;
24859;SDS011;12936;52.006;4.350;2023-06-04T10:09:03;2.97;;;1.38;;
24859;SDS011;12936;52.006;4.350;2023-06-04T10:11:34;2.90;;;1.20;;
24859;SDS011;12936;52.006;4.350;2023-06-04T10:14:08;3.28;;;1.00;;
24859;SDS011;12936;52.006;4.350;2023-06-04T10:16:43;1.42;;;0.90;;
24859;SDS011;12936;52.006;4.350;2023-06-04T10:19:12;5.13;;;1.23;;
24859;SDS011;12936;52.006;4.350;2023-06-04T10:21:41;4.80;;;1.30;;
24859;SDS011;12936;52.006;4.350;2023-06-04T10:24:12;5.75;;;1.42;;
24859;SDS011;12936;52.006;4.350;2023-06-04T10:26:42;4.20;;;1.30;;
24859;SDS011;12936;52.006;4.350;2023-06-04T10:29:12;5.22;;;1.15;;
24859;SDS011;12936;52.006;4.350;2023-06-04T10:31:42;3.05;;;1.30;;
24859;SDS011;12936;52.006;4.350;2023-06-04T10:34:11;3.45;;;1.20;;
24859;SDS011;12936;52.006;4.350;2023-06-04T10:36:43;4.22;;;1.20;;
24859;SDS011;12936;52.006;4.350;2023-06-04T10:39:12;4.72;;;1.20;;
24859;SDS011;12936;52.006;4.350;2023-06-04T10:41:41;2.67;;;1.10;;
24859;SDS011;12936;52.006;4.350;2023-06-04T10:44:09;3.95;;;1.23;;
24859;SDS011;12936;52.006;4.350;2023-06-04T10:46:40;2.40;;;1.35;;
24859;SDS011;12936;52.006;4.350;2023-06-04T10:49:09;3.85;;;1.20;;
24859;SDS011;12936;52.006;4.350;2023-06-04T10:51:38;2.80;;;1.13;;
24859;SDS011;12936;52.006;4.350;2023-06-04T10:54:07;8.73;;;1.50;;
24859;SDS011;12936;52.006;4.350;2023-06-04T10:56:35;4.22;;;1.40;;
24859;SDS011;12936;52.006;4.350;2023-06-04T10:59:13;7.78;;;1.50;;
24859;SDS011;12936;52.006;4.350;2023-06-04T11:01:44;2.78;;;1.20;;
24859;SDS011;12936;52.006;4.350;2023-06-04T11:04:20;4.00;;;1.27;;
24859;SDS011;12936;52.006;4.350;2023-06-04T11:06:55;7.22;;;1.60;;
24859;SDS011;12936;52.006;4.350;2023-06-04T11:09:29;2.67;;;1.25;;
24859;SDS011;12936;52.006;4.350;2023-06-04T11:12:00;8.05;;;1.50;;
24859;SDS011;12936;52.006;4.350;2023-06-04T11:14:30;3.25;;;1.20;;
24859;SDS011;12936;52.006;4.350;2023-06-04T11:17:09;2.95;;;1.40;;
24859;SDS011;12936;52.006;4.350;2023-06-04T11:19:39;2.75;;;1.00;;
24859;SDS011;12936;52.006;4.350;2023-06-04T11:22:10;2.72;;;1.30;;
24859;SDS011;12936;52.006;4.350;2023-06-04T11:24:38;3.78;;;1.50;;
24859;SDS011;12936;52.006;4.350;2023-06-04T11:27:06;2.63;;;0.98;;
24859;SDS011;12936;52.006;4.350;2023-06-04T11:29:49;5.15;;;1.23;;
24859;SDS011;12936;52.006;4.350;2023-06-04T11:32:23;3.00;;;1.30;;
24859;SDS011;12936;52.006;4.350;2023-06-04T11:35:01;1.33;;;1.13;;
24859;SDS011;12936;52.006;4.350;2023-06-04T11:37:31;7.25;;;1.55;;
24859;SDS011;12936;52.006;4.350;2023-06-04T11:39:59;2.88;;;1.20;;
24859;SDS011;12936;52.006;4.350;2023-06-04T11:42:28;4.55;;;1.27;;
24859;SDS011;12936;52.006;4.350;2023-06-04T11:44:57;2.78;;;1.35;;
24859;SDS011;12936;52.006;4.350;2023-06-04T11:47:27;2.97;;;1.17;;
24859;SDS011;12936;52.006;4.350;2023-06-04T11:49:57;5.45;;;1.50;;
24859;SDS011;12936;52.006;4.350;2023-06-04T11:52:27;3.60;;;1.45;;
24859;SDS011;12936;52.006;4.350;2023-06-04T11:54:55;2.55;;;1.15;;
24859;SDS011;12936;52.006;4.350;2023-06-04T11:57:23;5.47;;;2.08;;
24859;SDS011;12936;52.006;4.350;2023-06-04T11:59:51;3.20;;;1.20;;
24859;SDS011;12936;52.006;4.350;2023-06-04T12:02:21;3.95;;;1.63;;
24859;SDS011;12936;52.006;4.350;2023-06-04T12:04:51;3.90;;;1.40;;
24859;SDS011;12936;52.006;4.350;2023-06-04T12:07:19;5.15;;;1.30;;
24859;SDS011;12936;52.006;4.350;2023-06-04T12:09:50;3.13;;;1.38;;
24859;SDS011;12936;52.006;4.350;2023-06-04T12:12:21;2.42;;;1.05;;
24859;SDS011;12936;52.006;4.350;2023-06-04T12:14:57;2.35;;;1.20;;
24859;SDS011;12936;52.006;4.350;2023-06-04T12:17:25;2.55;;;1.30;;
24859;SDS011;12936;52.006;4.350;2023-06-04T12:19:55;3.28;;;1.00;;
24859;SDS011;12936;52.006;4.350;2023-06-04T12:22:26;3.80;;;1.30;;
24859;SDS011;12936;52.006;4.350;2023-06-04T12:24:55;5.63;;;1.40;;
24859;SDS011;12936;52.006;4.350;2023-06-04T12:27:26;3.05;;;1.50;;
24859;SDS011;12936;52.006;4.350;2023-06-04T12:29:55;4.18;;;1.55;;
24859;SDS011;12936;52.006;4.350;2023-06-04T12:32:24;5.55;;;1.77;;
24859;SDS011;12936;52.006;4.350;2023-06-04T12:34:52;11.20;;;1.42;;
24859;SDS011;12936;52.006;4.350;2023-06-04T12:37:22;3.28;;;1.40;;
24859;SDS011;12936;52.006;4.350;2023-06-04T12:39:53;4.25;;;1.10;;
24859;SDS011;12936;52.006;4.350;2023-06-04T12:42:21;4.47;;;1.50;;
24859;SDS011;12936;52.006;4.350;2023-06-04T12:44:50;3.95;;;1.10;;
24859;SDS011;12936;52.006;4.350;2023-06-04T12:47:18;7.70;;;2.05;;
24859;SDS011;12936;52.006;4.350;2023-06-04T12:49:47;6.25;;;1.85;;
24859;SDS011;12936;52.006;4.350;2023-06-04T12:52:16;3.72;;;1.80;;
24859;SDS011;12936;52.006;4.350;2023-06-04T12:54:46;7.47;;;1.75;;
24859;SDS011;12936;52.006;4.350;2023-06-04T12:57:15;3.42;;;1.30;;
24859;SDS011;12936;52.006;4.350;2023-06-04T12:59:43;6.05;;;1.40;;
24859;SDS011;12936;52.006;4.350;2023-06-04T13:02:11;7.05;;;1.50;;
24859;SDS011;12936;52.006;4.350;2023-06-04T13:04:39;5.90;;;1.80;;
24859;SDS011;12936;52.006;4.350;2023-06-04T13:07:13;6.50;;;2.17;;
24859;SDS011;12936;52.006;4.350;2023-06-04T13:09:41;4.50;;;1.60;;
24859;SDS011;12936;52.006;4.350;2023-06-04T13:12:10;6.82;;;1.60;;
24859;SDS011;12936;52.006;4.350;2023-06-04T13:14:39;8.93;;;1.92;;
24859;SDS011;12936;52.006;4.350;2023-06-04T13:17:07;4.13;;;1.48;;
24859;SDS011;12936;52.006;4.350;2023-06-04T13:19:48;8.93;;;2.05;;
24859;SDS011;12936;52.006;4.350;2023-06-04T13:22:16;7.70;;;1.98;;
24859;SDS011;12936;52.006;4.350;2023-06-04T13:24:44;6.82;;;1.70;;
24859;SDS011;12936;52.006;4.350;2023-06-04T13:27:14;7.00;;;1.75;;
24859;SDS011;12936;52.006;4.350;2023-06-04T13:29:44;9.20;;;1.80;;
24859;SDS011;12936;52.006;4.350;2023-06-04T13:32:15;5.40;;;1.80;;
24859;SDS011;12936;52.006;4.350;2023-06-04T13:34:44;9.27;;;2.00;;
24859;SDS011;12936;52.006;4.350;2023-06-04T13:37:13;6.53;;;1.92;;
24859;SDS011;12936;52.006;4.350;2023-06-04T13:39:42;7.95;;;1.60;;
24859;SDS011;12936;52.006;4.350;2023-06-04T13:42:10;5.30;;;1.65;;
24859;SDS011;12936;52.006;4.350;2023-06-04T13:44:40;7.65;;;1.65;;
24859;SDS011;12936;52.006;4.350;2023-06-04T13:47:08;5.45;;;1.73;;
24859;SDS011;12936;52.006;4.350;2023-06-04T13:49:36;7.15;;;1.80;;
24859;SDS011;12936;52.006;4.350;2023-06-04T13:52:04;6.07;;;1.80;;
24859;SDS011;12936;52.006;4.350;2023-06-04T13:54:32;4.70;;;1.60;;
24859;SDS011;12936;52.006;4.350;2023-06-04T13:57:02;8.90;;;1.63;;
24859;SDS011;12936;52.006;4.350;2023-06-04T13:59:31;10.25;;;2.00;;
24859;SDS011;12936;52.006;4.350;2023-06-04T14:02:00;4.15;;;1.55;;
24859;SDS011;12936;52.006;4.350;2023-06-04T14:04:28;7.95;;;1.80;;
24859;SDS011;12936;52.006;4.350;2023-06-04T14:06:57;8.25;;;1.85;;
24859;SDS011;12936;52.006;4.350;2023-06-04T14:09:25;5.82;;;1.55;;
24859;SDS011;12936;52.006;4.350;2023-06-04T14:11:53;7.68;;;1.73;;
24859;SDS011;12936;52.006;4.350;2023-06-04T14:14:21;5.13;;;1.83;;
24859;SDS011;12936;52.006;4.350;2023-06-04T14:16:49;4.50;;;1.60;;
24859;SDS011;12936;52.006;4.350;2023-06-04T14:19:25;7.95;;;1.80;;
24859;SDS011;12936;52.006;4.350;2023-06-04T14:21:53;7.60;;;1.80;;
24859;SDS011;12936;52.006;4.350;2023-06-04T14:24:21;9.68;;;2.08;;
24859;SDS011;12936;52.006;4.350;2023-06-04T14:26:49;7.03;;;1.67;;
24859;SDS011;12936;52.006;4.350;2023-06-04T14:29:17;4.45;;;1.80;;
24859;SDS011;12936;52.006;4.350;2023-06-04T14:31:46;8.65;;;1.95;;
24859;SDS011;12936;52.006;4.350;2023-06-04T14:34:14;5.97;;;1.65;;
24859;SDS011;12936;52.006;4.350;2023-06-04T14:36:43;10.00;;;2.08;;
24859;SDS011;12936;52.006;4.350;2023-06-04T14:39:13;8.77;;;1.95;;
24859;SDS011;12936;52.006;4.350;2023-06-04T14:41:41;5.35;;;1.80;;
24859;SDS011;12936;52.006;4.350;2023-06-04T14:44:09;7.20;;;2.00;;
24859;SDS011;12936;52.006;4.350;2023-06-04T14:46:37;9.65;;;2.10;;
24859;SDS011;12936;52.006;4.350;2023-06-04T14:49:05;7.65;;;1.90;;
24859;SDS011;12936;52.006;4.350;2023-06-04T14:51:33;5.15;;;1.73;;
24859;SDS011;12936;52.006;4.350;2023-06-04T14:54:02;5.20;;;1.88;;
24859;SDS011;12936;52.006;4.350;2023-06-04T14:56:31;5.63;;;1.73;;
24859;SDS011;12936;52.006;4.350;2023-06-04T14:58:59;4.97;;;2.10;;
24859;SDS011;12936;52.006;4.350;2023-06-04T15:01:28;8.82;;;2.20;;
24859;SDS011;12936;52.006;4.350;2023-06-04T15:03:56;9.25;;;1.75;;
24859;SDS011;12936;52.006;4.350;2023-06-04T15:06:24;6.53;;;2.05;;